sensor_id;sensor_type;location;lat;lon;timestamp;P1;durP1;ratioP1;P2;durP2;ratioP2
18176;SDS011;9213;50.858;3.964;2023-07-13T00:01:43;4.83;;;1.93;;
18176;SDS011;9213;50.858;3.964;2023-07-13T00:04:11;9.68;;;2.17;;
18176;SDS011;9213;50.858;3.964;2023-07-13T00:06:40;9.15;;;2.78;;
18176;SDS011;9213;50.858;3.964;2023-07-13T00:09:10;5.60;;;2.00;;
18176;SDS011;9213;50.858;3.964;2023-07-13T00:11:37;8.48;;;2.20;;
18176;SDS011;9213;50.858;3.964;2023-07-13T00:14:06;8.05;;;2.20;;
18176;SDS011;9213;50.858;3.964;2023-07-13T00:16:34;4.77;;;2.13;;
18176;SDS011;9213;50.858;3.964;2023-07-13T00:19:02;5.27;;;2.40;;
18176;SDS011;9213;50.858;3.964;2023-07-13T00:21:29;8.17;;;2.57;;
18176;SDS011;9213;50.858;3.964;2023-07-13T00:23:56;8.30;;;3.20;;
18176;SDS011;9213;50.858;3.964;2023-07-13T00:26:23;5.67;;;2.40;;
18176;SDS011;9213;50.858;3.964;2023-07-13T00:28:50;4.55;;;1.95;;
18176;SDS011;9213;50.858;3.964;2023-07-13T00:31:18;8.87;;;2.63;;
18176;SDS011;9213;50.858;3.964;2023-07-13T00:33:46;6.20;;;2.60;;
18176;SDS011;9213;50.858;3.964;2023-07-13T00:36:13;7.03;;;2.67;;
18176;SDS011;9213;50.858;3.964;2023-07-13T00:38:40;6.20;;;3.03;;
18176;SDS011;9213;50.858;3.964;2023-07-13T00:41:07;6.43;;;2.17;;
18176;SDS011;9213;50.858;3.964;2023-07-13T00:43:34;11.73;;;2.90;;
18176;SDS011;9213;50.858;3.964;2023-07-13T00:46:09;7.73;;;2.50;;
18176;SDS011;9213;50.858;3.964;2023-07-13T00:48:41;6.17;;;2.50;;
18176;SDS011;9213;50.858;3.964;2023-07-13T00:51:10;8.70;;;3.17;;
18176;SDS011;9213;50.858;3.964;2023-07-13T00:53:38;6.30;;;2.70;;
18176;SDS011;9213;50.858;3.964;2023-07-13T00:56:05;9.37;;;3.00;;
18176;SDS011;9213;50.858;3.964;2023-07-13T00:58:33;9.17;;;3.50;;
18176;SDS011;9213;50.858;3.964;2023-07-13T01:01:00;6.63;;;2.47;;
18176;SDS011;9213;50.858;3.964;2023-07-13T01:03:27;8.40;;;2.70;;
18176;SDS011;9213;50.858;3.964;2023-07-13T01:05:56;7.77;;;2.80;;
18176;SDS011;9213;50.858;3.964;2023-07-13T01:08:22;9.17;;;2.90;;
18176;SDS011;9213;50.858;3.964;2023-07-13T01:10:53;15.13;;;2.43;;
18176;SDS011;9213;50.858;3.964;2023-07-13T01:13:21;9.23;;;2.57;;
18176;SDS011;9213;50.858;3.964;2023-07-13T01:15:49;8.80;;;2.40;;
18176;SDS011;9213;50.858;3.964;2023-07-13T01:18:18;6.97;;;2.40;;
18176;SDS011;9213;50.858;3.964;2023-07-13T01:20:50;7.33;;;2.60;;
18176;SDS011;9213;50.858;3.964;2023-07-13T01:23:18;6.47;;;2.63;;
18176;SDS011;9213;50.858;3.964;2023-07-13T01:25:45;8.13;;;2.83;;
18176;SDS011;9213;50.858;3.964;2023-07-13T01:28:12;6.37;;;2.27;;
18176;SDS011;9213;50.858;3.964;2023-07-13T01:30:42;7.00;;;2.87;;
18176;SDS011;9213;50.858;3.964;2023-07-13T01:33:11;7.17;;;2.13;;
18176;SDS011;9213;50.858;3.964;2023-07-13T01:35:39;5.63;;;2.13;;
18176;SDS011;9213;50.858;3.964;2023-07-13T01:38:07;7.33;;;2.43;;
18176;SDS011;9213;50.858;3.964;2023-07-13T01:40:36;7.10;;;2.60;;
18176;SDS011;9213;50.858;3.964;2023-07-13T01:43:03;4.53;;;2.40;;
18176;SDS011;9213;50.858;3.964;2023-07-13T01:45:30;10.07;;;2.60;;
18176;SDS011;9213;50.858;3.964;2023-07-13T01:47:57;9.07;;;2.87;;
18176;SDS011;9213;50.858;3.964;2023-07-13T01:50:24;6.53;;;2.60;;
18176;SDS011;9213;50.858;3.964;2023-07-13T01:52:52;11.30;;;3.63;;
18176;SDS011;9213;50.858;3.964;2023-07-13T01:55:21;7.80;;;3.20;;
18176;SDS011;9213;50.858;3.964;2023-07-13T01:57:48;8.83;;;3.20;;
18176;SDS011;9213;50.858;3.964;2023-07-13T02:00:15;13.00;;;2.63;;
18176;SDS011;9213;50.858;3.964;2023-07-13T02:02:43;8.60;;;2.97;;
18176;SDS011;9213;50.858;3.964;2023-07-13T02:05:10;7.97;;;2.87;;
18176;SDS011;9213;50.858;3.964;2023-07-13T02:07:37;7.67;;;3.00;;
18176;SDS011;9213;50.858;3.964;2023-07-13T02:10:04;8.27;;;2.50;;
18176;SDS011;9213;50.858;3.964;2023-07-13T02:12:33;9.37;;;3.43;;
18176;SDS011;9213;50.858;3.964;2023-07-13T02:15:00;8.83;;;2.73;;
18176;SDS011;9213;50.858;3.964;2023-07-13T02:17:28;10.60;;;3.13;;
18176;SDS011;9213;50.858;3.964;2023-07-13T02:19:55;9.53;;;2.80;;
18176;SDS011;9213;50.858;3.964;2023-07-13T02:22:22;8.53;;;2.70;;
18176;SDS011;9213;50.858;3.964;2023-07-13T02:24:49;9.57;;;3.00;;
18176;SDS011;9213;50.858;3.964;2023-07-13T02:27:16;6.83;;;3.50;;
18176;SDS011;9213;50.858;3.964;2023-07-13T02:29:44;9.20;;;2.90;;
18176;SDS011;9213;50.858;3.964;2023-07-13T02:32:11;9.13;;;3.30;;
18176;SDS011;9213;50.858;3.964;2023-07-13T02:34:38;9.87;;;3.30;;
18176;SDS011;9213;50.858;3.964;2023-07-13T02:37:06;12.40;;;3.37;;
18176;SDS011;9213;50.858;3.964;2023-07-13T02:39:33;9.00;;;3.30;;
18176;SDS011;9213;50.858;3.964;2023-07-13T02:42:00;11.10;;;3.87;;
18176;SDS011;9213;50.858;3.964;2023-07-13T02:44:28;11.30;;;3.13;;
18176;SDS011;9213;50.858;3.964;2023-07-13T02:46:56;11.27;;;3.60;;
18176;SDS011;9213;50.858;3.964;2023-07-13T02:49:24;9.57;;;3.07;;
18176;SDS011;9213;50.858;3.964;2023-07-13T02:51:51;9.10;;;2.77;;
18176;SDS011;9213;50.858;3.964;2023-07-13T02:54:18;10.97;;;3.70;;
18176;SDS011;9213;50.858;3.964;2023-07-13T02:56:45;9.27;;;3.20;;
18176;SDS011;9213;50.858;3.964;2023-07-13T02:59:12;8.23;;;3.10;;
18176;SDS011;9213;50.858;3.964;2023-07-13T03:01:39;10.47;;;3.30;;
18176;SDS011;9213;50.858;3.964;2023-07-13T03:04:07;11.13;;;3.30;;
18176;SDS011;9213;50.858;3.964;2023-07-13T03:06:34;15.00;;;3.63;;
18176;SDS011;9213;50.858;3.964;2023-07-13T03:09:01;10.97;;;3.30;;
18176;SDS011;9213;50.858;3.964;2023-07-13T03:11:29;9.03;;;3.57;;
18176;SDS011;9213;50.858;3.964;2023-07-13T03:13:57;9.83;;;3.70;;
18176;SDS011;9213;50.858;3.964;2023-07-13T03:16:24;10.07;;;3.60;;
18176;SDS011;9213;50.858;3.964;2023-07-13T03:18:51;8.73;;;3.50;;
18176;SDS011;9213;50.858;3.964;2023-07-13T03:21:20;11.37;;;3.83;;
18176;SDS011;9213;50.858;3.964;2023-07-13T03:23:47;11.30;;;3.60;;
18176;SDS011;9213;50.858;3.964;2023-07-13T03:26:15;11.80;;;3.70;;
18176;SDS011;9213;50.858;3.964;2023-07-13T03:28:44;12.47;;;4.17;;
18176;SDS011;9213;50.858;3.964;2023-07-13T03:31:12;8.60;;;4.10;;
18176;SDS011;9213;50.858;3.964;2023-07-13T03:33:41;10.40;;;4.13;;
18176;SDS011;9213;50.858;3.964;2023-07-13T03:36:10;8.63;;;3.67;;
18176;SDS011;9213;50.858;3.964;2023-07-13T03:38:40;13.27;;;5.23;;
18176;SDS011;9213;50.858;3.964;2023-07-13T03:41:07;10.67;;;4.27;;
18176;SDS011;9213;50.858;3.964;2023-07-13T03:43:33;15.37;;;4.23;;
18176;SDS011;9213;50.858;3.964;2023-07-13T03:46:00;12.30;;;4.30;;
18176;SDS011;9213;50.858;3.964;2023-07-13T03:48:27;13.50;;;4.30;;
18176;SDS011;9213;50.858;3.964;2023-07-13T03:50:54;15.03;;;5.20;;
18176;SDS011;9213;50.858;3.964;2023-07-13T03:53:21;11.57;;;3.77;;
18176;SDS011;9213;50.858;3.964;2023-07-13T03:55:49;10.57;;;4.63;;
18176;SDS011;9213;50.858;3.964;2023-07-13T03:58:27;10.27;;;4.00;;
18176;SDS011;9213;50.858;3.964;2023-07-13T04:00:57;9.73;;;4.27;;
18176;SDS011;9213;50.858;3.964;2023-07-13T04:03:24;12.50;;;4.63;;
18176;SDS011;9213;50.858;3.964;2023-07-13T04:05:52;14.80;;;4.23;;
18176;SDS011;9213;50.858;3.964;2023-07-13T04:08:20;13.50;;;5.13;;
18176;SDS011;9213;50.858;3.964;2023-07-13T04:10:47;11.20;;;4.13;;
18176;SDS011;9213;50.858;3.964;2023-07-13T04:13:15;13.03;;;4.67;;
18176;SDS011;9213;50.858;3.964;2023-07-13T04:15:42;12.63;;;4.13;;
18176;SDS011;9213;50.858;3.964;2023-07-13T04:18:09;9.30;;;4.07;;
18176;SDS011;9213;50.858;3.964;2023-07-13T04:20:36;7.43;;;3.67;;
18176;SDS011;9213;50.858;3.964;2023-07-13T04:23:03;11.63;;;3.80;;
18176;SDS011;9213;50.858;3.964;2023-07-13T04:25:30;13.27;;;4.23;;
18176;SDS011;9213;50.858;3.964;2023-07-13T04:27:57;8.07;;;4.53;;
18176;SDS011;9213;50.858;3.964;2023-07-13T04:30:25;9.93;;;4.13;;
18176;SDS011;9213;50.858;3.964;2023-07-13T04:32:52;11.17;;;4.53;;
18176;SDS011;9213;50.858;3.964;2023-07-13T04:35:19;12.83;;;3.80;;
18176;SDS011;9213;50.858;3.964;2023-07-13T04:37:47;8.37;;;3.30;;
18176;SDS011;9213;50.858;3.964;2023-07-13T04:40:15;13.80;;;4.43;;
18176;SDS011;9213;50.858;3.964;2023-07-13T04:42:43;13.67;;;4.00;;
18176;SDS011;9213;50.858;3.964;2023-07-13T04:45:10;12.93;;;3.93;;
18176;SDS011;9213;50.858;3.964;2023-07-13T04:47:39;12.40;;;4.57;;
18176;SDS011;9213;50.858;3.964;2023-07-13T04:50:07;15.20;;;4.80;;
18176;SDS011;9213;50.858;3.964;2023-07-13T04:52:34;14.03;;;3.87;;
18176;SDS011;9213;50.858;3.964;2023-07-13T04:55:01;12.30;;;3.90;;
18176;SDS011;9213;50.858;3.964;2023-07-13T04:57:29;15.23;;;3.93;;
18176;SDS011;9213;50.858;3.964;2023-07-13T04:59:56;15.33;;;4.50;;
18176;SDS011;9213;50.858;3.964;2023-07-13T05:02:26;13.23;;;4.07;;
18176;SDS011;9213;50.858;3.964;2023-07-13T05:04:54;9.10;;;3.50;;
18176;SDS011;9213;50.858;3.964;2023-07-13T05:07:21;19.53;;;4.70;;
18176;SDS011;9213;50.858;3.964;2023-07-13T05:09:48;10.67;;;3.90;;
18176;SDS011;9213;50.858;3.964;2023-07-13T05:12:15;11.00;;;3.87;;
18176;SDS011;9213;50.858;3.964;2023-07-13T05:14:42;13.23;;;3.97;;
18176;SDS011;9213;50.858;3.964;2023-07-13T05:17:09;9.37;;;4.00;;
18176;SDS011;9213;50.858;3.964;2023-07-13T05:19:36;13.97;;;4.00;;
18176;SDS011;9213;50.858;3.964;2023-07-13T05:22:04;13.07;;;4.13;;
18176;SDS011;9213;50.858;3.964;2023-07-13T05:24:31;14.40;;;4.50;;
18176;SDS011;9213;50.858;3.964;2023-07-13T05:26:58;12.00;;;3.80;;
18176;SDS011;9213;50.858;3.964;2023-07-13T05:29:25;13.03;;;4.87;;
18176;SDS011;9213;50.858;3.964;2023-07-13T05:31:52;16.63;;;4.30;;
18176;SDS011;9213;50.858;3.964;2023-07-13T05:34:19;11.27;;;4.67;;
18176;SDS011;9213;50.858;3.964;2023-07-13T05:36:46;12.67;;;4.20;;
18176;SDS011;9213;50.858;3.964;2023-07-13T05:39:15;11.10;;;4.00;;
18176;SDS011;9213;50.858;3.964;2023-07-13T05:41:42;11.67;;;4.20;;
18176;SDS011;9213;50.858;3.964;2023-07-13T05:44:09;13.53;;;4.37;;
18176;SDS011;9213;50.858;3.964;2023-07-13T05:46:36;20.63;;;4.80;;
18176;SDS011;9213;50.858;3.964;2023-07-13T05:49:03;9.87;;;4.40;;
18176;SDS011;9213;50.858;3.964;2023-07-13T05:51:30;10.40;;;4.37;;
18176;SDS011;9213;50.858;3.964;2023-07-13T05:53:56;17.20;;;4.40;;
18176;SDS011;9213;50.858;3.964;2023-07-13T05:56:25;10.80;;;4.40;;
18176;SDS011;9213;50.858;3.964;2023-07-13T05:58:52;11.80;;;4.10;;
18176;SDS011;9213;50.858;3.964;2023-07-13T06:01:18;11.43;;;3.73;;
18176;SDS011;9213;50.858;3.964;2023-07-13T06:03:47;10.97;;;4.30;;
18176;SDS011;9213;50.858;3.964;2023-07-13T06:06:14;11.70;;;4.50;;
18176;SDS011;9213;50.858;3.964;2023-07-13T06:08:42;15.07;;;4.77;;
18176;SDS011;9213;50.858;3.964;2023-07-13T06:11:10;14.33;;;4.50;;
18176;SDS011;9213;50.858;3.964;2023-07-13T06:13:42;10.97;;;4.13;;
18176;SDS011;9213;50.858;3.964;2023-07-13T06:16:10;16.17;;;4.47;;
18176;SDS011;9213;50.858;3.964;2023-07-13T06:18:37;12.47;;;4.23;;
18176;SDS011;9213;50.858;3.964;2023-07-13T06:21:06;12.82;;;4.40;;
18176;SDS011;9213;50.858;3.964;2023-07-13T06:23:33;10.43;;;3.90;;
18176;SDS011;9213;50.858;3.964;2023-07-13T06:26:00;11.75;;;4.22;;
18176;SDS011;9213;50.858;3.964;2023-07-13T06:28:28;12.15;;;3.72;;
18176;SDS011;9213;50.858;3.964;2023-07-13T06:30:56;13.17;;;4.00;;
18176;SDS011;9213;50.858;3.964;2023-07-13T06:33:23;8.73;;;3.88;;
18176;SDS011;9213;50.858;3.964;2023-07-13T06:35:50;11.45;;;4.32;;
18176;SDS011;9213;50.858;3.964;2023-07-13T06:38:18;8.10;;;4.00;;
18176;SDS011;9213;50.858;3.964;2023-07-13T06:40:45;13.02;;;4.20;;
18176;SDS011;9213;50.858;3.964;2023-07-13T06:43:12;11.73;;;4.27;;
18176;SDS011;9213;50.858;3.964;2023-07-13T06:45:40;8.95;;;4.07;;
18176;SDS011;9213;50.858;3.964;2023-07-13T06:48:09;12.05;;;4.05;;
18176;SDS011;9213;50.858;3.964;2023-07-13T06:50:36;10.80;;;4.00;;
18176;SDS011;9213;50.858;3.964;2023-07-13T06:53:03;11.25;;;3.90;;
18176;SDS011;9213;50.858;3.964;2023-07-13T06:55:30;12.15;;;3.85;;
18176;SDS011;9213;50.858;3.964;2023-07-13T06:57:57;11.55;;;4.25;;
18176;SDS011;9213;50.858;3.964;2023-07-13T07:00:24;11.35;;;4.05;;
18176;SDS011;9213;50.858;3.964;2023-07-13T07:02:51;12.48;;;3.88;;
18176;SDS011;9213;50.858;3.964;2023-07-13T07:05:19;9.55;;;4.18;;
18176;SDS011;9213;50.858;3.964;2023-07-13T07:07:47;9.85;;;3.50;;
18176;SDS011;9213;50.858;3.964;2023-07-13T07:10:14;11.68;;;3.75;;
18176;SDS011;9213;50.858;3.964;2023-07-13T07:12:41;10.23;;;3.95;;
18176;SDS011;9213;50.858;3.964;2023-07-13T07:15:08;11.07;;;3.30;;
18176;SDS011;9213;50.858;3.964;2023-07-13T07:17:35;9.23;;;3.35;;
18176;SDS011;9213;50.858;3.964;2023-07-13T07:20:03;15.05;;;3.45;;
18176;SDS011;9213;50.858;3.964;2023-07-13T07:22:32;10.75;;;3.65;;
18176;SDS011;9213;50.858;3.964;2023-07-13T07:24:59;10.70;;;3.10;;
18176;SDS011;9213;50.858;3.964;2023-07-13T07:27:26;11.38;;;3.40;;
18176;SDS011;9213;50.858;3.964;2023-07-13T07:29:53;10.10;;;3.38;;
18176;SDS011;9213;50.858;3.964;2023-07-13T07:32:22;9.63;;;2.72;;
18176;SDS011;9213;50.858;3.964;2023-07-13T07:34:48;10.48;;;3.08;;
18176;SDS011;9213;50.858;3.964;2023-07-13T07:37:15;8.95;;;2.78;;
18176;SDS011;9213;50.858;3.964;2023-07-13T07:39:44;8.60;;;2.97;;
18176;SDS011;9213;50.858;3.964;2023-07-13T07:42:11;7.80;;;2.58;;
18176;SDS011;9213;50.858;3.964;2023-07-13T07:44:39;8.43;;;3.25;;
18176;SDS011;9213;50.858;3.964;2023-07-13T07:47:06;10.55;;;3.20;;
18176;SDS011;9213;50.858;3.964;2023-07-13T07:49:34;14.15;;;2.90;;
18176;SDS011;9213;50.858;3.964;2023-07-13T07:52:01;8.15;;;3.47;;
18176;SDS011;9213;50.858;3.964;2023-07-13T07:54:27;11.20;;;2.65;;
18176;SDS011;9213;50.858;3.964;2023-07-13T07:56:56;7.45;;;3.08;;
18176;SDS011;9213;50.858;3.964;2023-07-13T07:59:23;9.77;;;3.42;;
18176;SDS011;9213;50.858;3.964;2023-07-13T08:01:50;8.85;;;3.55;;
18176;SDS011;9213;50.858;3.964;2023-07-13T08:04:17;12.20;;;3.85;;
18176;SDS011;9213;50.858;3.964;2023-07-13T08:06:43;9.35;;;3.00;;
18176;SDS011;9213;50.858;3.964;2023-07-13T08:09:10;10.35;;;3.50;;
18176;SDS011;9213;50.858;3.964;2023-07-13T08:11:38;9.43;;;3.10;;
18176;SDS011;9213;50.858;3.964;2023-07-13T08:14:06;12.15;;;3.53;;
18176;SDS011;9213;50.858;3.964;2023-07-13T08:16:34;14.23;;;3.63;;
18176;SDS011;9213;50.858;3.964;2023-07-13T08:19:01;7.97;;;2.90;;
18176;SDS011;9213;50.858;3.964;2023-07-13T08:21:29;7.00;;;2.92;;
18176;SDS011;9213;50.858;3.964;2023-07-13T08:23:56;7.43;;;2.58;;
18176;SDS011;9213;50.858;3.964;2023-07-13T08:26:23;7.85;;;3.17;;
18176;SDS011;9213;50.858;3.964;2023-07-13T08:28:50;9.27;;;2.70;;
18176;SDS011;9213;50.858;3.964;2023-07-13T08:31:18;7.82;;;3.03;;
18176;SDS011;9213;50.858;3.964;2023-07-13T08:33:45;12.98;;;3.13;;
18176;SDS011;9213;50.858;3.964;2023-07-13T08:36:12;9.35;;;3.00;;
18176;SDS011;9213;50.858;3.964;2023-07-13T08:38:39;5.82;;;2.40;;
18176;SDS011;9213;50.858;3.964;2023-07-13T08:41:10;5.53;;;2.70;;
18176;SDS011;9213;50.858;3.964;2023-07-13T08:43:38;7.78;;;2.70;;
18176;SDS011;9213;50.858;3.964;2023-07-13T08:46:08;8.50;;;2.90;;
18176;SDS011;9213;50.858;3.964;2023-07-13T08:48:41;9.32;;;2.60;;
18176;SDS011;9213;50.858;3.964;2023-07-13T08:51:17;6.80;;;2.90;;
18176;SDS011;9213;50.858;3.964;2023-07-13T08:53:54;8.70;;;2.70;;
18176;SDS011;9213;50.858;3.964;2023-07-13T08:56:27;7.28;;;2.70;;
18176;SDS011;9213;50.858;3.964;2023-07-13T08:58:55;8.48;;;2.47;;
18176;SDS011;9213;50.858;3.964;2023-07-13T09:01:24;8.45;;;2.60;;
18176;SDS011;9213;50.858;3.964;2023-07-13T09:04:01;7.95;;;2.55;;
18176;SDS011;9213;50.858;3.964;2023-07-13T09:06:34;8.35;;;2.53;;
18176;SDS011;9213;50.858;3.964;2023-07-13T09:09:27;7.22;;;2.80;;
18176;SDS011;9213;50.858;3.964;2023-07-13T09:12:07;8.75;;;2.50;;
18176;SDS011;9213;50.858;3.964;2023-07-13T09:14:41;7.13;;;2.33;;
18176;SDS011;9213;50.858;3.964;2023-07-13T09:17:12;8.40;;;2.28;;
18176;SDS011;9213;50.858;3.964;2023-07-13T09:19:45;6.07;;;2.42;;
18176;SDS011;9213;50.858;3.964;2023-07-13T09:22:18;9.00;;;2.35;;
18176;SDS011;9213;50.858;3.964;2023-07-13T09:24:50;5.47;;;2.45;;
18176;SDS011;9213;50.858;3.964;2023-07-13T09:27:23;5.40;;;2.47;;
18176;SDS011;9213;50.858;3.964;2023-07-13T09:29:57;4.07;;;2.13;;
18176;SDS011;9213;50.858;3.964;2023-07-13T09:32:42;6.82;;;2.22;;
18176;SDS011;9213;50.858;3.964;2023-07-13T09:35:15;6.60;;;2.65;;
18176;SDS011;9213;50.858;3.964;2023-07-13T09:37:47;4.47;;;2.08;;
18176;SDS011;9213;50.858;3.964;2023-07-13T09:40:17;4.85;;;2.00;;
18176;SDS011;9213;50.858;3.964;2023-07-13T09:42:48;3.58;;;2.00;;
18176;SDS011;9213;50.858;3.964;2023-07-13T09:45:17;7.10;;;2.35;;
18176;SDS011;9213;50.858;3.964;2023-07-13T09:47:58;8.73;;;2.53;;
18176;SDS011;9213;50.858;3.964;2023-07-13T09:50:27;5.38;;;2.40;;
18176;SDS011;9213;50.858;3.964;2023-07-13T09:52:54;7.70;;;2.33;;
18176;SDS011;9213;50.858;3.964;2023-07-13T09:55:25;6.07;;;2.40;;
18176;SDS011;9213;50.858;3.964;2023-07-13T09:57:53;8.07;;;2.28;;
18176;SDS011;9213;50.858;3.964;2023-07-13T10:00:21;7.18;;;2.28;;
18176;SDS011;9213;50.858;3.964;2023-07-13T10:02:57;5.53;;;1.98;;
18176;SDS011;9213;50.858;3.964;2023-07-13T10:05:27;5.35;;;2.25;;
18176;SDS011;9213;50.858;3.964;2023-07-13T10:08:03;7.38;;;2.08;;
18176;SDS011;9213;50.858;3.964;2023-07-13T10:10:32;8.35;;;2.33;;
18176;SDS011;9213;50.858;3.964;2023-07-13T10:13:00;4.47;;;2.05;;
18176;SDS011;9213;50.858;3.964;2023-07-13T10:15:30;7.20;;;2.10;;
18176;SDS011;9213;50.858;3.964;2023-07-13T10:17:58;8.88;;;2.30;;
18176;SDS011;9213;50.858;3.964;2023-07-13T10:20:27;5.97;;;2.53;;
18176;SDS011;9213;50.858;3.964;2023-07-13T10:22:56;7.25;;;2.58;;
18176;SDS011;9213;50.858;3.964;2023-07-13T10:25:26;10.27;;;2.92;;
18176;SDS011;9213;50.858;3.964;2023-07-13T10:27:58;8.43;;;2.88;;
18176;SDS011;9213;50.858;3.964;2023-07-13T10:30:31;6.30;;;2.90;;
18176;SDS011;9213;50.858;3.964;2023-07-13T10:33:02;7.53;;;2.47;;
18176;SDS011;9213;50.858;3.964;2023-07-13T10:35:36;6.43;;;2.30;;
18176;SDS011;9213;50.858;3.964;2023-07-13T10:38:05;6.95;;;2.17;;
18176;SDS011;9213;50.858;3.964;2023-07-13T10:40:36;9.15;;;2.20;;
18176;SDS011;9213;50.858;3.964;2023-07-13T10:43:13;4.53;;;2.00;;
18176;SDS011;9213;50.858;3.964;2023-07-13T10:45:45;4.65;;;1.67;;
18176;SDS011;9213;50.858;3.964;2023-07-13T10:48:15;3.70;;;2.17;;
18176;SDS011;9213;50.858;3.964;2023-07-13T10:50:45;5.57;;;1.70;;
18176;SDS011;9213;50.858;3.964;2023-07-13T10:53:18;4.43;;;1.60;;
18176;SDS011;9213;50.858;3.964;2023-07-13T10:55:58;6.07;;;2.00;;
18176;SDS011;9213;50.858;3.964;2023-07-13T10:58:32;3.97;;;1.98;;
18176;SDS011;9213;50.858;3.964;2023-07-13T11:01:02;5.82;;;1.75;;
18176;SDS011;9213;50.858;3.964;2023-07-13T11:03:35;6.45;;;2.10;;
18176;SDS011;9213;50.858;3.964;2023-07-13T11:06:07;4.35;;;2.08;;
18176;SDS011;9213;50.858;3.964;2023-07-13T11:08:37;6.40;;;2.70;;
18176;SDS011;9213;50.858;3.964;2023-07-13T11:11:35;4.53;;;2.22;;
18176;SDS011;9213;50.858;3.964;2023-07-13T11:14:04;5.35;;;2.53;;
18176;SDS011;9213;50.858;3.964;2023-07-13T11:16:51;4.80;;;2.38;;
18176;SDS011;9213;50.858;3.964;2023-07-13T11:19:26;2.97;;;1.83;;
18176;SDS011;9213;50.858;3.964;2023-07-13T11:22:11;3.72;;;1.80;;
18176;SDS011;9213;50.858;3.964;2023-07-13T11:24:48;3.75;;;1.90;;
18176;SDS011;9213;50.858;3.964;2023-07-13T11:27:27;6.78;;;2.42;;
18176;SDS011;9213;50.858;3.964;2023-07-13T11:30:07;5.35;;;2.03;;
18176;SDS011;9213;50.858;3.964;2023-07-13T11:32:49;6.22;;;2.22;;
18176;SDS011;9213;50.858;3.964;2023-07-13T11:35:19;5.50;;;2.15;;
18176;SDS011;9213;50.858;3.964;2023-07-13T11:37:52;6.25;;;2.30;;
18176;SDS011;9213;50.858;3.964;2023-07-13T11:40:21;7.07;;;2.17;;
18176;SDS011;9213;50.858;3.964;2023-07-13T11:42:53;8.77;;;2.90;;
18176;SDS011;9213;50.858;3.964;2023-07-13T11:45:25;6.82;;;2.20;;
18176;SDS011;9213;50.858;3.964;2023-07-13T11:47:53;5.18;;;1.90;;
18176;SDS011;9213;50.858;3.964;2023-07-13T11:50:22;2.65;;;1.67;;
18176;SDS011;9213;50.858;3.964;2023-07-13T11:52:50;3.55;;;2.00;;
18176;SDS011;9213;50.858;3.964;2023-07-13T11:55:21;2.80;;;1.90;;
18176;SDS011;9213;50.858;3.964;2023-07-13T11:57:50;2.28;;;1.83;;
18176;SDS011;9213;50.858;3.964;2023-07-13T12:00:22;3.58;;;2.20;;
18176;SDS011;9213;50.858;3.964;2023-07-13T12:02:53;5.60;;;1.92;;
18176;SDS011;9213;50.858;3.964;2023-07-13T12:05:22;5.93;;;1.83;;
18176;SDS011;9213;50.858;3.964;2023-07-13T12:07:50;3.15;;;1.73;;
18176;SDS011;9213;50.858;3.964;2023-07-13T12:10:21;2.90;;;1.90;;
18176;SDS011;9213;50.858;3.964;2023-07-13T12:12:51;4.15;;;2.20;;
18176;SDS011;9213;50.858;3.964;2023-07-13T12:15:19;6.00;;;2.40;;
18176;SDS011;9213;50.858;3.964;2023-07-13T12:17:48;4.30;;;2.38;;
18176;SDS011;9213;50.858;3.964;2023-07-13T12:20:21;3.08;;;2.03;;
18176;SDS011;9213;50.858;3.964;2023-07-13T12:22:50;4.93;;;2.30;;
18176;SDS011;9213;50.858;3.964;2023-07-13T12:25:18;3.80;;;2.15;;
18176;SDS011;9213;50.858;3.964;2023-07-13T12:27:48;4.18;;;2.25;;
18176;SDS011;9213;50.858;3.964;2023-07-13T12:30:24;2.63;;;2.20;;
18176;SDS011;9213;50.858;3.964;2023-07-13T12:32:57;2.80;;;2.30;;
18176;SDS011;9213;50.858;3.964;2023-07-13T12:35:26;5.07;;;2.20;;
18176;SDS011;9213;50.858;3.964;2023-07-13T12:37:58;4.35;;;2.22;;
18176;SDS011;9213;50.858;3.964;2023-07-13T12:40:26;3.42;;;2.13;;
18176;SDS011;9213;50.858;3.964;2023-07-13T12:43:00;3.40;;;2.20;;
18176;SDS011;9213;50.858;3.964;2023-07-13T12:45:29;4.75;;;2.35;;
18176;SDS011;9213;50.858;3.964;2023-07-13T12:47:58;3.00;;;2.17;;
18176;SDS011;9213;50.858;3.964;2023-07-13T12:50:30;4.10;;;2.17;;
18176;SDS011;9213;50.858;3.964;2023-07-13T12:53:04;2.65;;;1.95;;
18176;SDS011;9213;50.858;3.964;2023-07-13T12:55:39;4.88;;;2.15;;
18176;SDS011;9213;50.858;3.964;2023-07-13T12:58:13;4.50;;;2.15;;
18176;SDS011;9213;50.858;3.964;2023-07-13T13:00:48;4.90;;;2.33;;
18176;SDS011;9213;50.858;3.964;2023-07-13T13:03:20;4.18;;;2.00;;
18176;SDS011;9213;50.858;3.964;2023-07-13T13:05:56;4.53;;;2.10;;
18176;SDS011;9213;50.858;3.964;2023-07-13T13:08:24;3.53;;;2.30;;
18176;SDS011;9213;50.858;3.964;2023-07-13T13:10:51;4.05;;;2.10;;
18176;SDS011;9213;50.858;3.964;2023-07-13T13:13:20;5.25;;;2.25;;
18176;SDS011;9213;50.858;3.964;2023-07-13T13:15:47;4.78;;;1.95;;
18176;SDS011;9213;50.858;3.964;2023-07-13T13:18:17;3.13;;;1.90;;
18176;SDS011;9213;50.858;3.964;2023-07-13T13:20:45;4.40;;;2.10;;
18176;SDS011;9213;50.858;3.964;2023-07-13T13:23:13;3.65;;;1.92;;
18176;SDS011;9213;50.858;3.964;2023-07-13T13:25:42;3.45;;;2.08;;
18176;SDS011;9213;50.858;3.964;2023-07-13T13:28:14;4.38;;;2.03;;
18176;SDS011;9213;50.858;3.964;2023-07-13T13:30:45;3.78;;;2.15;;
18176;SDS011;9213;50.858;3.964;2023-07-13T13:33:13;2.40;;;2.08;;
18176;SDS011;9213;50.858;3.964;2023-07-13T13:35:42;5.13;;;2.08;;
18176;SDS011;9213;50.858;3.964;2023-07-13T13:38:10;3.08;;;1.95;;
18176;SDS011;9213;50.858;3.964;2023-07-13T13:40:39;4.07;;;1.80;;
18176;SDS011;9213;50.858;3.964;2023-07-13T13:43:16;3.60;;;1.92;;
18176;SDS011;9213;50.858;3.964;2023-07-13T13:45:45;7.25;;;1.85;;
18176;SDS011;9213;50.858;3.964;2023-07-13T13:48:14;5.38;;;2.08;;
18176;SDS011;9213;50.858;3.964;2023-07-13T13:50:42;4.07;;;1.85;;
18176;SDS011;9213;50.858;3.964;2023-07-13T13:53:10;3.47;;;1.88;;
18176;SDS011;9213;50.858;3.964;2023-07-13T13:55:38;4.88;;;2.10;;
18176;SDS011;9213;50.858;3.964;2023-07-13T13:58:07;4.97;;;2.00;;
18176;SDS011;9213;50.858;3.964;2023-07-13T14:00:34;4.47;;;2.17;;
18176;SDS011;9213;50.858;3.964;2023-07-13T14:03:03;3.10;;;1.90;;
18176;SDS011;9213;50.858;3.964;2023-07-13T14:05:32;4.50;;;1.63;;
18176;SDS011;9213;50.858;3.964;2023-07-13T14:07:59;5.85;;;1.95;;
18176;SDS011;9213;50.858;3.964;2023-07-13T14:10:26;5.10;;;2.00;;
18176;SDS011;9213;50.858;3.964;2023-07-13T14:12:54;7.18;;;1.95;;
18176;SDS011;9213;50.858;3.964;2023-07-13T14:15:23;2.90;;;1.60;;
18176;SDS011;9213;50.858;3.964;2023-07-13T14:17:51;2.70;;;1.63;;
18176;SDS011;9213;50.858;3.964;2023-07-13T14:20:21;3.22;;;1.65;;
18176;SDS011;9213;50.858;3.964;2023-07-13T14:22:49;4.10;;;1.60;;
18176;SDS011;9213;50.858;3.964;2023-07-13T14:25:16;2.30;;;1.65;;
18176;SDS011;9213;50.858;3.964;2023-07-13T14:27:44;2.63;;;1.90;;
18176;SDS011;9213;50.858;3.964;2023-07-13T14:30:14;5.40;;;1.50;;
18176;SDS011;9213;50.858;3.964;2023-07-13T14:32:42;3.63;;;1.40;;
18176;SDS011;9213;50.858;3.964;2023-07-13T14:35:10;3.75;;;1.60;;
18176;SDS011;9213;50.858;3.964;2023-07-13T14:37:39;3.90;;;1.70;;
18176;SDS011;9213;50.858;3.964;2023-07-13T14:40:13;2.92;;;1.58;;
18176;SDS011;9213;50.858;3.964;2023-07-13T14:42:41;2.13;;;1.58;;
18176;SDS011;9213;50.858;3.964;2023-07-13T14:45:12;3.72;;;1.55;;
18176;SDS011;9213;50.858;3.964;2023-07-13T14:47:40;4.18;;;1.73;;
18176;SDS011;9213;50.858;3.964;2023-07-13T14:50:12;2.65;;;1.88;;
18176;SDS011;9213;50.858;3.964;2023-07-13T14:52:43;3.40;;;1.73;;
18176;SDS011;9213;50.858;3.964;2023-07-13T14:55:11;2.55;;;1.50;;
18176;SDS011;9213;50.858;3.964;2023-07-13T14:57:38;2.20;;;1.70;;
18176;SDS011;9213;50.858;3.964;2023-07-13T15:00:09;2.35;;;1.83;;
18176;SDS011;9213;50.858;3.964;2023-07-13T15:02:40;2.88;;;1.70;;
18176;SDS011;9213;50.858;3.964;2023-07-13T15:05:13;2.65;;;1.80;;
18176;SDS011;9213;50.858;3.964;2023-07-13T15:07:42;2.28;;;1.70;;
18176;SDS011;9213;50.858;3.964;2023-07-13T15:10:16;2.30;;;1.42;;